createdAt,value
2019-05-29T00:00:40.340Z,4.80
2019-05-29T00:03:30.461Z,4.90
2019-05-29T00:05:30.541Z,4.90
2019-05-29T00:06:40.579Z,4.65
2019-05-29T00:07:40.547Z,4.50
2019-05-29T00:08:40.597Z,4.80
2019-05-29T00:09:30.811Z,4.60
2019-05-29T00:10:40.737Z,4.20
2019-05-29T00:11:40.742Z,4.40
2019-05-29T00:12:40.813Z,4.10
2019-05-29T00:13:30.835Z,4.50
2019-05-29T00:14:31.093Z,4.15
2019-05-29T00:18:40.944Z,4.50
2019-05-29T00:19:30.997Z,4.30
2019-05-29T00:20:30.985Z,4.50
2019-05-29T00:21:41.006Z,4.60
2019-05-29T00:22:31.041Z,4.30
2019-05-29T00:23:31.046Z,4.40
2019-05-29T00:25:31.119Z,4.40
2019-05-29T00:27:41.298Z,4.50
2019-05-29T00:28:41.310Z,4.25
2019-05-29T00:29:31.326Z,3.70
2019-05-29T00:30:31.342Z,4.10
2019-05-29T00:31:51.395Z,4.10
2019-05-29T00:33:31.462Z,4.30
2019-05-29T00:34:31.396Z,4.20
2019-05-29T00:35:41.451Z,3.85
2019-05-29T00:36:41.474Z,3.90
2019-05-29T00:37:41.477Z,4.10
2019-05-29T00:38:41.506Z,4.20
2019-05-29T00:39:31.520Z,4.30
2019-05-29T00:40:41.563Z,4.30
2019-05-29T00:41:41.616Z,4.10
2019-05-29T00:42:41.632Z,4.20
2019-05-29T00:43:41.647Z,3.90
2019-05-29T00:44:34.119Z,4.00
2019-05-29T00:45:31.811Z,3.70
2019-05-29T00:46:41.726Z,3.85
2019-05-29T00:47:41.734Z,3.80
2019-05-29T00:48:41.750Z,4.00
2019-05-29T00:49:31.791Z,3.90
2019-05-29T00:50:41.931Z,3.60
2019-05-29T00:51:41.873Z,3.90
2019-05-29T00:52:41.876Z,3.70
2019-05-29T00:53:41.950Z,3.80
2019-05-29T00:54:41.942Z,3.70
2019-05-29T00:55:42.062Z,3.80
2019-05-29T00:58:32.089Z,3.60
2019-05-29T00:59:32.085Z,3.80
2019-05-29T01:00:32.119Z,3.80
2019-05-29T01:03:42.197Z,3.60
2019-05-29T01:04:42.211Z,3.60
2019-05-29T01:05:42.242Z,3.70
2019-05-29T01:11:32.648Z,3.60
2019-05-29T01:12:32.597Z,3.50
2019-05-29T01:15:32.698Z,3.50
2019-05-29T01:16:42.707Z,3.20
2019-05-29T01:19:32.732Z,3.30
2019-05-29T01:21:32.903Z,3.30
2019-05-29T01:22:32.783Z,3.40
2019-05-29T01:23:32.808Z,3.50
2019-05-29T01:25:32.837Z,3.20
2019-05-29T01:26:32.891Z,3.30
2019-05-29T01:27:32.895Z,3.25
2019-05-29T01:31:33.134Z,3.10
2019-05-29T01:32:33.072Z,3.35
2019-05-29T01:34:33.113Z,3.10
2019-05-29T01:35:33.118Z,3.20
2019-05-29T01:36:33.132Z,3.25
2019-05-29T01:37:33.138Z,3.10
2019-05-29T01:38:33.170Z,3.20
2019-05-29T01:41:43.212Z,3.00
2019-05-29T01:44:33.276Z,3.10
2019-05-29T01:45:23.578Z,2.90
2019-05-29T01:46:33.379Z,2.80
2019-05-29T01:47:33.518Z,2.90
2019-05-29T01:50:23.743Z,2.90
2019-05-29T01:51:43.623Z,2.80
2019-05-29T01:53:34.954Z,2.80
2019-05-29T01:54:33.685Z,3.00
2019-05-29T01:55:33.733Z,2.40
2019-05-29T01:56:43.762Z,2.80
2019-05-29T01:58:33.783Z,2.90
2019-05-29T01:59:33.813Z,2.90
2019-05-29T02:00:33.829Z,2.60
2019-05-29T02:01:33.870Z,2.70
2019-05-29T02:02:33.885Z,2.80
2019-05-29T02:03:34.026Z,2.90
2019-05-29T02:04:25.331Z,2.50
2019-05-29T02:05:34.047Z,2.80
2019-05-29T02:06:34.066Z,2.50
2019-05-29T02:07:34.210Z,2.80
2019-05-29T02:08:34.179Z,2.80
2019-05-29T02:09:34.185Z,2.60
2019-05-29T02:10:34.272Z,2.50
2019-05-29T02:11:34.321Z,2.50
2019-05-29T02:12:34.421Z,2.50
2019-05-29T02:13:34.431Z,2.50
2019-05-29T02:15:31.894Z,2.30
2019-05-29T02:16:44.485Z,2.70
2019-05-29T02:20:34.619Z,2.30
2019-05-29T02:21:44.634Z,2.20
2019-05-29T02:23:34.675Z,2.50
2019-05-29T02:26:44.721Z,2.20
2019-05-29T02:29:34.853Z,2.10
2019-05-29T02:30:34.902Z,2.20
2019-05-29T02:31:34.990Z,2.20
2019-05-29T02:32:35.008Z,2.30
2019-05-29T02:35:35.121Z,2.10
2019-05-29T02:36:35.138Z,2.40
2019-05-29T02:37:35.153Z,2.10
2019-05-29T02:38:35.296Z,2.10
2019-05-29T02:41:45.251Z,2.00
2019-05-29T02:43:35.258Z,2.00
2019-05-29T02:46:45.314Z,2.00
2019-05-29T02:51:45.608Z,2.00
2019-05-29T02:53:35.630Z,2.00
2019-05-29T02:54:35.644Z,2.10
2019-05-29T02:56:35.682Z,2.10
2019-05-29T02:57:35.705Z,2.00
2019-05-29T03:01:35.775Z,1.90
2019-05-29T03:02:35.792Z,1.90
2019-05-29T03:03:39.614Z,1.90
2019-05-29T03:04:35.842Z,1.90
2019-05-29T03:06:45.913Z,1.90
2019-05-29T03:08:35.982Z,1.90
2019-05-29T03:09:36.102Z,1.90
2019-05-29T03:10:35.983Z,2.00
2019-05-29T03:11:46.496Z,1.70
2019-05-29T03:18:16.153Z,1.50
2019-05-29T03:19:36.199Z,1.70
2019-05-29T03:20:46.172Z,1.60
2019-05-29T03:22:36.223Z,1.65
2019-05-29T03:24:36.285Z,1.60
2019-05-29T03:28:37.978Z,1.70
2019-05-29T03:29:38.297Z,1.70
2019-05-29T03:33:44.431Z,1.50
2019-05-29T03:34:31.967Z,1.50
2019-05-29T03:35:48.366Z,1.50
2019-05-29T03:39:38.167Z,1.60
2019-05-29T03:40:46.821Z,1.60
2019-05-29T03:42:36.852Z,1.40
2019-05-29T03:43:38.380Z,1.50
2019-05-29T03:44:36.875Z,1.50
2019-05-29T03:45:57.900Z,1.50
2019-05-29T03:47:16.930Z,1.50
2019-05-29T03:50:47.083Z,1.40
2019-05-29T03:58:37.799Z,1.30
2019-05-29T03:59:37.523Z,1.40
2019-05-29T04:00:48.847Z,1.40
2019-05-29T04:03:38.012Z,1.30
2019-05-29T04:06:47.680Z,1.20
2019-05-29T04:07:47.685Z,1.40
2019-05-29T04:10:07.591Z,1.30
2019-05-29T04:11:17.616Z,1.30
2019-05-29T04:14:17.704Z,1.30
2019-05-29T04:17:47.867Z,1.20
2019-05-29T04:18:58.665Z,1.20
2019-05-29T04:20:07.911Z,1.00
2019-05-29T04:20:47.907Z,1.30
2019-05-29T04:23:07.987Z,1.20
2019-05-29T04:25:48.024Z,1.10
2019-05-29T04:29:38.458Z,1.20
2019-05-29T04:30:48.158Z,1.00
2019-05-29T04:32:18.179Z,1.10
2019-05-29T04:33:39.375Z,1.20
2019-05-29T04:35:18.338Z,0.90
2019-05-29T04:35:48.360Z,1.10
2019-05-29T04:37:48.493Z,1.10
2019-05-29T04:42:18.662Z,1.10
2019-05-29T04:44:40.381Z,1.00
2019-05-29T04:47:39.535Z,1.00
2019-05-29T04:48:40.153Z,1.00
2019-05-29T04:49:39.821Z,1.00
2019-05-29T04:52:29.131Z,0.90
2019-05-29T04:55:48.967Z,0.80
2019-05-29T04:58:39.222Z,1.20
2019-05-29T04:59:39.282Z,1.30
2019-05-29T05:00:39.414Z,1.00
2019-05-29T05:01:39.323Z,1.10
2019-05-29T05:04:39.444Z,1.30
2019-05-29T05:05:39.582Z,1.30
2019-05-29T05:06:39.554Z,1.50
2019-05-29T05:07:39.693Z,1.75
2019-05-29T05:08:39.737Z,1.40
2019-05-29T05:09:39.599Z,1.70
2019-05-29T05:10:40.828Z,1.70
2019-05-29T05:11:39.655Z,1.70
2019-05-29T05:12:40.049Z,1.60
2019-05-29T05:13:29.580Z,1.80
2019-05-29T05:14:39.872Z,1.80
2019-05-29T05:15:49.527Z,1.90
2019-05-29T05:17:40.096Z,2.00
2019-05-29T05:19:40.118Z,2.20
2019-05-29T05:20:49.659Z,2.50
2019-05-29T05:24:42.472Z,2.80
2019-05-29T05:25:49.922Z,2.50
2019-05-29T05:30:49.895Z,3.10
2019-05-29T05:32:41.088Z,2.90
2019-05-29T05:34:40.992Z,2.80
2019-05-29T05:35:40.970Z,2.90
2019-05-29T05:37:20.348Z,3.20
2019-05-29T05:42:41.237Z,3.40
2019-05-29T05:43:41.309Z,3.50
2019-05-29T05:45:41.197Z,3.10
2019-05-29T05:47:44.692Z,3.40
2019-05-29T05:49:20.798Z,3.50
2019-05-29T05:53:41.694Z,3.60
2019-05-29T05:55:41.804Z,3.75
2019-05-29T05:57:31.591Z,3.60
2019-05-29T05:58:33.746Z,3.50
2019-05-29T05:59:31.569Z,3.80
2019-05-29T06:00:42.053Z,3.45
2019-05-29T06:01:42.074Z,3.80
2019-05-29T06:02:42.105Z,3.70
2019-05-29T06:03:31.787Z,3.70
2019-05-29T06:04:31.788Z,3.50
2019-05-29T06:05:51.437Z,3.60
2019-05-29T06:07:31.933Z,3.80
2019-05-29T06:08:31.980Z,3.50
2019-05-29T06:09:32.648Z,3.90
2019-05-29T06:10:42.386Z,3.80
2019-05-29T06:11:42.497Z,3.40
2019-05-29T06:12:21.710Z,3.80
2019-05-29T06:14:21.776Z,3.60
2019-05-29T06:15:42.879Z,3.80
2019-05-29T06:16:42.734Z,3.80
2019-05-29T06:19:43.276Z,3.50
2019-05-29T06:20:43.131Z,3.50
2019-05-29T06:21:42.855Z,3.50
2019-05-29T06:22:43.483Z,3.70
2019-05-29T06:23:43.178Z,3.60
2019-05-29T06:24:21.973Z,3.30
2019-05-29T06:25:11.993Z,3.60
2019-05-29T06:25:52.008Z,3.50
2019-05-29T06:26:51.990Z,3.80
2019-05-29T06:29:52.025Z,3.90
2019-05-29T06:30:52.748Z,3.70
2019-05-29T06:39:12.448Z,3.90
2019-05-29T06:40:42.478Z,3.50
2019-05-29T06:42:42.535Z,3.60
2019-05-29T06:43:42.543Z,3.60
2019-05-29T06:45:42.573Z,3.50
2019-05-29T06:46:42.656Z,3.70
2019-05-29T06:47:42.746Z,3.50
2019-05-29T06:49:42.640Z,3.15
2019-05-29T06:50:52.783Z,3.40
2019-05-29T06:52:22.706Z,3.50
2019-05-29T06:53:22.825Z,3.20
2019-05-29T06:55:54.372Z,3.00
2019-05-29T06:59:44.585Z,3.30
2019-05-29T07:02:23.136Z,3.20
2019-05-29T07:04:23.183Z,2.90
2019-05-29T07:05:46.269Z,3.30
2019-05-29T07:06:43.213Z,3.30
2019-05-29T07:07:44.373Z,2.95
2019-05-29T07:08:46.282Z,3.00
2019-05-29T07:12:23.335Z,3.00
2019-05-29T07:13:35.074Z,2.80
2019-05-29T07:15:45.439Z,2.90
2019-05-29T07:16:49.451Z,3.10
2019-05-29T07:19:18.080Z,3.20
2019-05-29T07:20:53.661Z,3.10
2019-05-29T07:25:53.724Z,3.00
2019-05-29T07:27:44.965Z,2.90
2019-05-29T07:29:44.891Z,2.70
2019-05-29T07:34:23.910Z,3.00
2019-05-29T07:35:53.964Z,2.80
2019-05-29T07:39:24.193Z,2.70
2019-05-29T07:40:45.497Z,2.50
2019-05-29T07:42:24.442Z,2.70
2019-05-29T07:43:24.455Z,2.90
2019-05-29T07:44:24.467Z,2.50
2019-05-29T07:45:54.491Z,2.50
2019-05-29T07:47:24.535Z,2.70
2019-05-29T07:48:24.546Z,2.60
2019-05-29T07:49:38.022Z,2.50
2019-05-29T07:51:06.541Z,2.70
2019-05-29T07:52:14.675Z,2.60
2019-05-29T07:53:24.728Z,2.50
2019-05-29T07:55:44.805Z,2.40
2019-05-29T07:57:24.908Z,2.40
2019-05-29T07:58:25.304Z,2.10
2019-05-29T07:59:28.090Z,2.40
2019-05-29T08:01:11.473Z,2.30
2019-05-29T08:02:25.140Z,2.40
2019-05-29T08:03:25.281Z,2.35
2019-05-29T08:05:55.325Z,2.60
2019-05-29T08:10:55.390Z,2.30
2019-05-29T08:12:25.416Z,2.10
2019-05-29T08:15:57.360Z,2.40
2019-05-29T08:17:25.569Z,2.50
2019-05-29T08:18:25.610Z,2.30
2019-05-29T08:19:25.712Z,2.10
2019-05-29T08:20:56.953Z,2.00
2019-05-29T08:22:34.093Z,1.90
2019-05-29T08:25:55.925Z,2.10
2019-05-29T08:29:25.988Z,2.00
2019-05-29T08:30:51.619Z,1.90
2019-05-29T08:33:26.090Z,2.30
2019-05-29T08:36:00.045Z,1.90
2019-05-29T08:37:26.203Z,1.90
2019-05-29T08:38:26.440Z,2.00
2019-05-29T08:40:47.389Z,2.00
2019-05-29T08:43:26.446Z,1.80
2019-05-29T08:44:26.474Z,2.20
2019-05-29T08:45:56.500Z,1.90
2019-05-29T08:50:56.625Z,1.90
2019-05-29T08:52:26.634Z,1.80
2019-05-29T08:53:26.691Z,1.80
2019-05-29T08:55:56.737Z,1.80
2019-05-29T09:00:56.864Z,1.70
2019-05-29T09:06:08.300Z,1.60
2019-05-29T09:07:27.340Z,1.90
2019-05-29T09:08:27.394Z,1.90
2019-05-29T09:10:57.386Z,1.70
2019-05-29T09:12:29.805Z,1.80
2019-05-29T09:13:27.459Z,1.90
2019-05-29T09:14:27.441Z,1.80
2019-05-29T09:15:57.489Z,1.60
2019-05-29T09:17:27.507Z,1.70
2019-05-29T09:19:27.597Z,1.60
2019-05-29T09:21:01.495Z,1.75
2019-05-29T09:22:27.658Z,1.50
2019-05-29T09:23:27.702Z,1.60
2019-05-29T09:24:27.715Z,1.40
2019-05-29T09:26:13.504Z,1.40
2019-05-29T09:27:28.937Z,1.60
2019-05-29T09:29:27.865Z,1.50
2019-05-29T09:30:57.875Z,1.60
2019-05-29T09:35:57.981Z,1.60
2019-05-29T09:38:28.213Z,1.75
2019-05-29T09:39:28.290Z,1.50
2019-05-29T09:40:48.145Z,1.60
2019-05-29T09:46:01.958Z,1.60
2019-05-29T09:47:28.317Z,1.50
2019-05-29T09:48:28.790Z,1.40
2019-05-29T09:49:28.394Z,1.50
2019-05-29T09:50:58.460Z,1.60
2019-05-29T09:52:30.751Z,1.40
2019-05-29T09:55:48.600Z,1.40
2019-05-29T09:57:28.619Z,1.20
2019-05-29T09:58:28.634Z,1.20
2019-05-29T10:01:16.953Z,1.40
2019-05-29T10:03:28.872Z,1.30
2019-05-29T10:05:59.464Z,1.30
2019-05-29T10:07:29.134Z,1.40
2019-05-29T10:10:49.059Z,1.20
2019-05-29T10:12:29.131Z,1.40
2019-05-29T10:14:29.196Z,1.40
2019-05-29T10:15:49.255Z,1.30
2019-05-29T10:17:29.255Z,1.30
2019-05-29T10:18:32.230Z,1.30
2019-05-29T10:19:29.439Z,1.30
2019-05-29T10:20:59.951Z,1.40
2019-05-29T10:22:29.434Z,1.40
2019-05-29T10:24:32.278Z,1.15
2019-05-29T10:25:49.535Z,1.50
2019-05-29T10:27:29.593Z,1.30
2019-05-29T10:31:03.354Z,1.30
2019-05-29T10:32:29.763Z,1.40
2019-05-29T10:33:29.777Z,1.30
2019-05-29T10:34:29.885Z,1.30
2019-05-29T10:36:03.625Z,1.20
2019-05-29T10:37:29.865Z,1.30
2019-05-29T10:41:00.003Z,1.30
2019-05-29T10:42:20.783Z,1.30
2019-05-29T10:44:30.062Z,1.10
2019-05-29T10:46:00.094Z,1.20
2019-05-29T10:47:30.205Z,1.10
2019-05-29T10:48:30.134Z,1.30
2019-05-29T10:51:00.168Z,1.10
2019-05-29T10:52:30.228Z,1.20
2019-05-29T10:53:30.235Z,1.40
2019-05-29T10:56:00.554Z,1.20
2019-05-29T10:57:30.576Z,1.30
2019-05-29T10:58:45.762Z,1.30
2019-05-29T10:59:30.639Z,1.20
2019-05-29T11:01:00.770Z,1.10
2019-05-29T11:04:30.929Z,1.10
2019-05-29T11:05:51.567Z,0.90
2019-05-29T11:08:31.007Z,1.20
2019-05-29T11:09:44.733Z,1.00
2019-05-29T11:12:31.012Z,1.00
2019-05-29T11:14:31.074Z,0.90
2019-05-29T11:15:51.118Z,1.00
2019-05-29T11:17:31.111Z,0.90
2019-05-29T11:18:21.108Z,1.00
2019-05-29T11:19:21.138Z,1.00
2019-05-29T11:22:31.211Z,0.95
2019-05-29T11:23:21.370Z,0.80
2019-05-29T11:24:41.426Z,0.90
2019-05-29T11:26:01.430Z,1.00
2019-05-29T11:27:41.490Z,0.90
2019-05-29T11:28:31.484Z,0.80
2019-05-29T11:29:31.615Z,0.85
2019-05-29T11:30:52.347Z,0.90
2019-05-29T11:32:21.615Z,0.80
2019-05-29T11:33:31.571Z,0.90
2019-05-29T11:34:31.580Z,0.70
2019-05-29T11:36:10.487Z,0.70
2019-05-29T11:37:31.751Z,0.80
2019-05-29T11:38:31.759Z,0.80
2019-05-29T11:39:31.913Z,0.80
2019-05-29T11:41:23.349Z,0.90
2019-05-29T11:45:53.088Z,0.70
2019-05-29T11:47:32.091Z,0.70
2019-05-29T11:49:32.107Z,0.60
2019-05-29T11:50:52.221Z,0.60
2019-05-29T11:52:42.251Z,0.70
2019-05-29T11:53:22.236Z,0.70
2019-05-29T11:54:32.258Z,0.50
2019-05-29T11:57:32.348Z,0.60
2019-05-29T11:58:32.321Z,0.60
2019-05-29T12:00:52.887Z,0.60
2019-05-29T12:02:32.560Z,0.55
2019-05-29T12:03:32.521Z,0.55
2019-05-29T12:05:53.478Z,0.70
2019-05-29T12:07:22.681Z,0.60
2019-05-29T12:08:22.707Z,0.50
2019-05-29T12:09:33.686Z,0.50
2019-05-29T12:10:53.173Z,0.50
2019-05-29T12:13:32.809Z,0.50
2019-05-29T12:15:10.783Z,0.50
2019-05-29T12:17:33.053Z,0.40
2019-05-29T12:18:33.043Z,0.60
2019-05-29T12:19:54.104Z,0.50
2019-05-29T12:21:33.248Z,0.40
2019-05-29T12:23:26.634Z,0.50
2019-05-29T12:24:54.462Z,0.50
2019-05-29T12:27:33.345Z,0.40
2019-05-29T12:28:33.384Z,0.40
2019-05-29T12:30:03.392Z,0.50
2019-05-29T12:31:23.396Z,0.40
2019-05-29T12:32:33.400Z,0.40
2019-05-29T12:33:23.421Z,0.40
2019-05-29T12:36:33.475Z,0.45
2019-05-29T12:37:33.494Z,0.40
2019-05-29T12:40:03.807Z,0.60
2019-05-29T12:41:33.701Z,0.80
2019-05-29T12:45:04.320Z,0.60
2019-05-29T12:46:33.758Z,0.50
2019-05-29T12:47:33.776Z,0.50
2019-05-29T12:48:35.065Z,0.40
2019-05-29T12:49:53.822Z,0.40
2019-05-29T12:51:23.855Z,0.30
2019-05-29T12:52:23.932Z,0.50
2019-05-29T12:53:33.961Z,0.40
2019-05-29T12:54:53.994Z,0.50
2019-05-29T12:56:24.006Z,0.50
2019-05-29T12:57:24.067Z,0.40
2019-05-29T12:58:34.076Z,0.60
2019-05-29T13:00:05.634Z,0.40
2019-05-29T13:01:24.197Z,0.40
2019-05-29T13:02:34.211Z,0.50
2019-05-29T13:03:34.220Z,0.50
2019-05-29T13:05:08.202Z,0.50
2019-05-29T13:06:24.364Z,0.55
2019-05-29T13:07:24.357Z,0.40
2019-05-29T13:08:24.363Z,0.40
2019-05-29T13:10:45.012Z,0.30
2019-05-29T13:11:34.428Z,0.40
2019-05-29T13:12:34.439Z,0.40
2019-05-29T13:15:05.698Z,0.40
2019-05-29T13:16:24.759Z,0.40
2019-05-29T13:17:24.689Z,0.40
2019-05-29T13:18:24.703Z,0.40
2019-05-29T13:20:34.792Z,0.50
2019-05-29T13:22:35.323Z,0.40
2019-05-29T13:23:44.517Z,0.40
2019-05-29T13:24:55.173Z,0.50
2019-05-29T13:26:24.951Z,0.40
2019-05-29T13:28:25.004Z,0.50
2019-05-29T13:30:35.099Z,0.50
2019-05-29T13:31:35.110Z,0.50
2019-05-29T13:32:35.139Z,0.50
2019-05-29T13:33:35.269Z,0.50
2019-05-29T13:34:55.803Z,0.40
2019-05-29T13:38:25.382Z,0.40
2019-05-29T13:41:35.494Z,0.30
2019-05-29T13:45:10.926Z,2.40
2019-05-29T13:46:27.144Z,2.70
2019-05-29T13:47:25.815Z,2.60
2019-05-29T13:48:26.195Z,2.45
2019-05-29T13:49:36.208Z,2.60
2019-05-29T13:50:36.435Z,2.90
2019-05-29T13:51:26.459Z,3.00
2019-05-29T13:52:36.744Z,3.85
2019-05-29T13:53:26.548Z,4.20
2019-05-29T13:57:14.147Z,5.50
2019-05-29T13:58:14.156Z,5.70
2019-05-29T13:59:14.167Z,6.50
2019-05-29T14:00:44.206Z,6.95
2019-05-29T14:02:05.848Z,7.20
2019-05-29T14:03:14.239Z,6.80
2019-05-29T14:04:05.102Z,6.55
2019-05-29T14:05:44.276Z,6.70
2019-05-29T14:07:04.902Z,6.80
2019-05-29T14:08:14.324Z,7.00
2019-05-29T14:09:14.374Z,6.90
2019-05-29T14:10:44.420Z,7.50
2019-05-29T14:12:05.220Z,7.40
2019-05-29T14:13:14.450Z,7.60
2019-05-29T14:14:07.347Z,7.80
2019-05-29T14:15:44.522Z,7.60
2019-05-29T14:17:04.655Z,7.65
2019-05-29T14:18:04.965Z,7.80
2019-05-29T14:19:14.580Z,7.15
2019-05-29T14:20:34.601Z,7.10
2019-05-29T14:22:15.046Z,7.45
2019-05-29T14:23:14.651Z,8.15
2019-05-29T14:24:28.011Z,8.40
2019-05-29T14:25:44.774Z,7.60
2019-05-29T14:28:04.806Z,7.40
2019-05-29T14:29:05.939Z,7.70
2019-05-29T14:30:34.849Z,7.30
2019-05-29T14:32:14.867Z,7.80
2019-05-29T14:33:06.539Z,8.00
2019-05-29T14:34:05.158Z,7.65
2019-05-29T14:35:45.020Z,8.40
2019-05-29T14:37:06.158Z,8.10
2019-05-29T14:38:08.890Z,8.00
2019-05-29T14:39:05.733Z,8.20
2019-05-29T14:40:35.091Z,8.10
2019-05-29T14:43:07.136Z,8.10
2019-05-29T14:44:17.252Z,8.30
2019-05-29T14:45:35.241Z,8.70
2019-05-29T14:48:06.126Z,8.30
2019-05-29T14:49:06.370Z,7.80
2019-05-29T14:50:35.343Z,7.80
2019-05-29T14:52:06.923Z,7.60
2019-05-29T14:53:06.708Z,7.70
2019-05-29T14:54:15.388Z,7.70
2019-05-29T14:55:35.419Z,7.60
2019-05-29T14:59:07.311Z,7.60
2019-05-29T15:00:35.518Z,7.10
2019-05-29T15:02:23.074Z,7.70
2019-05-29T15:03:15.570Z,7.15
2019-05-29T15:04:15.585Z,7.20
2019-05-29T15:05:45.615Z,7.00
2019-05-29T15:09:05.772Z,7.20
2019-05-29T15:12:06.039Z,7.00
2019-05-29T15:13:15.854Z,6.80
2019-05-29T15:14:06.137Z,6.50
2019-05-29T15:15:35.893Z,7.00
2019-05-29T15:17:07.029Z,6.90
2019-05-29T15:18:18.647Z,7.10
2019-05-29T15:19:06.854Z,7.00
2019-05-29T15:20:36.224Z,7.10
2019-05-29T15:23:07.501Z,7.10
2019-05-29T15:27:06.290Z,7.40
2019-05-29T15:29:06.349Z,7.80
2019-05-29T15:32:06.419Z,7.50
2019-05-29T15:37:09.783Z,7.60
2019-05-29T15:38:06.735Z,7.20
2019-05-29T15:39:06.560Z,8.20
2019-05-29T15:42:06.834Z,7.60
2019-05-29T15:44:06.809Z,7.40
2019-05-29T15:45:36.695Z,7.60
2019-05-29T15:47:06.899Z,8.00
2019-05-29T15:48:07.025Z,8.10
2019-05-29T15:49:36.804Z,9.20
2019-05-29T15:52:07.043Z,9.10
2019-05-29T15:53:07.123Z,8.70
2019-05-29T15:54:36.879Z,8.80
2019-05-29T15:58:07.303Z,8.70
2019-05-29T16:04:37.129Z,9.00
2019-05-29T16:12:08.438Z,9.80
2019-05-29T16:13:08.574Z,9.95
2019-05-29T16:14:37.331Z,10.10
2019-05-29T16:16:07.394Z,10.00
2019-05-29T16:20:47.484Z,10.40
2019-05-29T16:22:47.524Z,10.10
2019-05-29T16:24:18.881Z,10.15
2019-05-29T16:25:17.571Z,10.30
2019-05-29T16:26:07.568Z,10.50
2019-05-29T16:27:08.917Z,9.70
2019-05-29T16:28:07.601Z,9.80
2019-05-29T16:29:37.617Z,10.20
2019-05-29T16:32:07.690Z,10.60
2019-05-29T16:33:07.717Z,10.50
2019-05-29T16:34:37.721Z,10.00
2019-05-29T16:39:37.797Z,10.80
2019-05-29T16:41:07.989Z,10.00
2019-05-29T16:42:07.906Z,10.30
2019-05-29T16:44:37.935Z,10.10
2019-05-29T16:48:08.029Z,10.70
2019-05-29T16:51:08.133Z,10.40
2019-05-29T16:52:08.150Z,10.55
2019-05-29T16:57:08.227Z,10.20
2019-05-29T16:59:38.257Z,10.15
2019-05-29T17:04:38.383Z,10.10
2019-05-29T17:06:08.402Z,9.80
2019-05-29T17:06:59.650Z,9.90
2019-05-29T17:11:08.487Z,9.70
2019-05-29T17:13:08.506Z,9.70
2019-05-29T17:14:38.517Z,9.30
2019-05-29T17:15:48.540Z,9.60
2019-05-29T17:17:08.826Z,9.30
2019-05-29T17:21:08.629Z,9.60
2019-05-29T17:22:08.646Z,9.60
2019-05-29T17:24:18.758Z,9.60
2019-05-29T17:25:18.961Z,9.60
2019-05-29T17:27:08.822Z,9.30
2019-05-29T17:28:08.759Z,9.35
2019-05-29T17:31:18.950Z,9.70
2019-05-29T17:32:18.907Z,9.25
2019-05-29T17:33:19.074Z,9.55
2019-05-29T17:37:08.877Z,9.10
2019-05-29T17:39:20.247Z,8.95
2019-05-29T17:40:21.420Z,9.25
2019-05-29T17:41:19.251Z,9.00
2019-05-29T17:42:20.215Z,8.40
2019-05-29T17:43:09.025Z,8.90
2019-05-29T17:45:49.106Z,8.85
2019-05-29T17:47:09.130Z,9.10
2019-05-29T17:49:21.713Z,8.40
2019-05-29T17:50:21.382Z,8.50
2019-05-29T17:51:09.315Z,8.40
2019-05-29T17:52:19.727Z,8.60
2019-05-29T17:53:09.194Z,8.50
2019-05-29T17:55:49.272Z,8.60
2019-05-29T17:59:20.097Z,8.20
2019-05-29T18:00:20.641Z,8.80
2019-05-29T18:01:19.969Z,8.60
2019-05-29T18:02:20.187Z,8.10
2019-05-29T18:03:20.070Z,8.00
2019-05-29T18:04:39.491Z,7.80
2019-05-29T18:06:09.498Z,8.10
2019-05-29T18:09:23.727Z,8.30
2019-05-29T18:10:20.827Z,7.80
2019-05-29T18:11:09.651Z,8.10
2019-05-29T18:12:09.674Z,7.80
2019-05-29T18:13:09.741Z,8.30
2019-05-29T18:14:39.719Z,8.30
2019-05-29T18:15:49.725Z,7.80
2019-05-29T18:17:09.748Z,7.50
2019-05-29T18:21:09.841Z,7.90
2019-05-29T18:22:09.882Z,7.20
2019-05-29T18:23:09.895Z,7.40
2019-05-29T18:27:10.023Z,7.45
2019-05-29T18:29:40.143Z,7.30
2019-05-29T18:31:10.162Z,7.50
2019-05-29T18:32:10.166Z,7.80
2019-05-29T18:34:40.237Z,7.30
2019-05-29T18:36:10.258Z,7.40
2019-05-29T18:37:10.270Z,7.40
2019-05-29T18:38:10.279Z,7.30
2019-05-29T18:39:40.445Z,7.10
2019-05-29T18:42:40.430Z,7.70
2019-05-29T18:44:10.444Z,7.30
2019-05-29T18:45:20.038Z,7.60
2019-05-29T18:46:10.557Z,7.10
2019-05-29T18:47:40.534Z,6.90
2019-05-29T18:50:10.574Z,6.90
2019-05-29T18:51:10.619Z,6.95
2019-05-29T18:57:40.705Z,7.20
2019-05-29T19:00:10.820Z,7.20
2019-05-29T19:02:40.881Z,7.25
2019-05-29T19:08:11.061Z,6.80
2019-05-29T19:10:11.078Z,9.40
2019-05-29T19:11:41.846Z,10.00
2019-05-29T19:15:11.220Z,10.40
2019-05-29T19:18:21.986Z,9.80
2019-05-29T19:19:22.004Z,9.80
2019-05-29T19:20:22.190Z,10.30
2019-05-29T19:21:41.261Z,10.00
2019-05-29T19:23:02.122Z,10.40
2019-05-29T19:24:11.288Z,10.90
2019-05-29T19:25:11.377Z,11.50
2019-05-29T19:26:22.542Z,10.45
2019-05-29T19:27:30.708Z,10.90
2019-05-29T19:28:22.413Z,11.60
2019-05-29T19:29:11.420Z,11.00
2019-05-29T19:30:11.568Z,11.10
2019-05-29T19:33:11.610Z,11.00
2019-05-29T19:34:11.711Z,10.70
2019-05-29T19:38:11.716Z,10.60
2019-05-29T19:39:21.734Z,10.45
2019-05-29T19:40:11.745Z,11.30
2019-05-29T19:41:41.777Z,10.80
2019-05-29T19:42:54.572Z,10.80
2019-05-29T19:45:11.960Z,10.30
2019-05-29T19:46:21.862Z,10.90
2019-05-29T19:47:21.876Z,10.90
2019-05-29T19:48:21.951Z,11.05
2019-05-29T19:49:11.960Z,11.40
2019-05-29T19:50:11.984Z,11.60
2019-05-29T19:54:12.194Z,10.20
2019-05-29T19:56:22.230Z,10.50
2019-05-29T19:57:22.115Z,10.25
2019-05-29T19:58:12.190Z,11.05
2019-05-29T19:59:12.201Z,11.30
2019-05-29T20:00:22.210Z,10.50
2019-05-29T20:01:42.229Z,11.00
2019-05-29T20:03:12.251Z,11.10
2019-05-29T20:08:12.354Z,12.35
2019-05-29T20:09:12.361Z,11.80
2019-05-29T20:10:22.380Z,12.00
2019-05-29T20:12:52.415Z,11.70
2019-05-29T20:15:12.443Z,11.70
2019-05-29T20:16:22.539Z,11.70
2019-05-29T20:17:22.541Z,12.20
2019-05-29T20:18:22.786Z,11.60
2019-05-29T20:19:12.535Z,11.70
2019-05-29T20:20:22.598Z,11.70
2019-05-29T20:24:12.649Z,11.45
2019-05-29T20:26:22.730Z,11.00
2019-05-29T20:27:22.828Z,10.60
2019-05-29T20:28:22.782Z,10.70
2019-05-29T20:29:22.919Z,10.90
2019-05-29T20:30:22.809Z,10.80
2019-05-29T20:31:42.952Z,10.40
2019-05-29T20:34:12.940Z,10.80
2019-05-29T20:35:12.945Z,10.30
2019-05-29T20:38:13.000Z,10.20
2019-05-29T20:39:23.005Z,10.30
2019-05-29T20:40:13.028Z,10.00
2019-05-29T20:44:13.129Z,9.90
2019-05-29T20:45:13.136Z,10.20
2019-05-29T20:48:24.013Z,9.90
2019-05-29T20:49:23.301Z,10.00
2019-05-29T20:50:24.216Z,9.80
2019-05-29T20:51:34.551Z,9.70
2019-05-29T20:58:23.851Z,10.10
2019-05-29T20:59:23.493Z,9.60
2019-05-29T21:00:13.511Z,9.60
2019-05-29T21:04:13.598Z,9.30
2019-05-29T21:06:23.652Z,8.70
2019-05-29T21:07:23.659Z,9.30
2019-05-29T21:08:13.658Z,9.20
2019-05-29T21:09:13.671Z,8.85
2019-05-29T21:10:23.695Z,9.00
2019-05-29T21:11:43.769Z,9.30
2019-05-29T21:13:13.788Z,8.90
2019-05-29T21:14:13.804Z,9.00
2019-05-29T21:15:13.968Z,8.70
2019-05-29T21:18:24.025Z,8.40
2019-05-29T21:19:14.052Z,8.40
2019-05-29T21:20:14.223Z,9.10
2019-05-29T21:23:04.315Z,8.80
2019-05-29T21:24:14.196Z,8.55
2019-05-29T21:26:24.263Z,8.90
2019-05-29T21:27:24.276Z,7.80
2019-05-29T21:28:37.118Z,8.60
2019-05-29T21:29:24.294Z,8.30
2019-05-29T21:30:24.370Z,8.60
2019-05-29T21:31:45.393Z,8.10
2019-05-29T21:33:04.384Z,8.75
2019-05-29T21:35:14.433Z,8.50
2019-05-29T21:36:24.450Z,8.10
2019-05-29T21:37:24.468Z,7.70
2019-05-29T21:38:14.470Z,8.10
2019-05-29T21:39:14.485Z,7.90
2019-05-29T21:40:24.575Z,7.90
2019-05-29T21:41:44.676Z,7.90
2019-05-29T21:46:14.650Z,8.05
2019-05-29T21:47:47.144Z,7.50
2019-05-29T21:48:45.176Z,7.90
2019-05-29T21:51:24.763Z,8.10
2019-05-29T21:52:24.780Z,7.50
2019-05-29T21:53:24.797Z,7.50
2019-05-29T21:54:24.814Z,7.90
2019-05-29T21:55:14.823Z,7.70
2019-05-29T22:00:14.891Z,7.15
2019-05-29T22:03:14.932Z,7.50
2019-05-29T22:04:15.035Z,7.60
2019-05-29T22:05:14.977Z,7.55
2019-05-29T22:09:15.080Z,7.85
2019-05-29T22:10:15.109Z,7.20
2019-05-29T22:11:25.152Z,7.20
2019-05-29T22:12:25.172Z,7.10
2019-05-29T22:13:15.188Z,7.10
2019-05-29T22:14:15.367Z,7.45
2019-05-29T22:15:15.381Z,7.40
2019-05-29T22:16:45.390Z,7.10
2019-05-29T22:20:15.500Z,7.40
2019-05-29T22:21:35.544Z,7.80
2019-05-29T22:23:15.645Z,6.95
2019-05-29T22:24:15.669Z,7.45
2019-05-29T22:25:15.689Z,7.40
2019-05-29T22:26:45.726Z,7.50
2019-05-29T22:33:15.926Z,7.00
2019-05-29T22:34:15.953Z,7.40
2019-05-29T22:35:16.017Z,7.20
2019-05-29T22:36:46.009Z,7.40
2019-05-29T22:37:56.022Z,7.30
2019-05-29T22:38:56.055Z,6.90
2019-05-29T22:41:16.109Z,7.40
2019-05-29T22:42:16.114Z,6.80
2019-05-29T22:43:26.130Z,7.10
2019-05-29T22:44:26.190Z,6.80
2019-05-29T22:45:26.362Z,6.80
2019-05-29T22:46:46.260Z,7.00
2019-05-29T22:47:56.356Z,6.90
2019-05-29T22:50:16.435Z,6.80